sensor_id;sensor_type;location;lat;lon;timestamp;P1;durP1;ratioP1;P2;durP2;ratioP2
10100;SDS011;5090;51.258;4.436;2023-03-01T00:00:54;13.50;;;8.80;;
10100;SDS011;5090;51.258;4.436;2023-03-01T00:03:22;11.50;;;7.97;;
10100;SDS011;5090;51.258;4.436;2023-03-01T00:05:51;10.70;;;8.50;;
10100;SDS011;5090;51.258;4.436;2023-03-01T00:08:19;14.90;;;8.77;;
10100;SDS011;5090;51.258;4.436;2023-03-01T00:10:48;9.60;;;7.87;;
10100;SDS011;5090;51.258;4.436;2023-03-01T00:13:16;12.80;;;7.73;;
10100;SDS011;5090;51.258;4.436;2023-03-01T00:15:44;11.07;;;8.53;;
10100;SDS011;5090;51.258;4.436;2023-03-01T00:18:12;11.70;;;8.53;;
10100;SDS011;5090;51.258;4.436;2023-03-01T00:20:41;11.60;;;8.60;;
10100;SDS011;5090;51.258;4.436;2023-03-01T00:23:09;14.67;;;7.77;;
10100;SDS011;5090;51.258;4.436;2023-03-01T00:25:41;12.10;;;8.30;;
10100;SDS011;5090;51.258;4.436;2023-03-01T00:28:05;10.53;;;8.03;;
10100;SDS011;5090;51.258;4.436;2023-03-01T00:30:33;11.20;;;8.13;;
10100;SDS011;5090;51.258;4.436;2023-03-01T00:33:02;11.83;;;8.30;;
10100;SDS011;5090;51.258;4.436;2023-03-01T00:35:31;11.33;;;8.30;;
10100;SDS011;5090;51.258;4.436;2023-03-01T00:37:58;11.33;;;8.33;;
10100;SDS011;5090;51.258;4.436;2023-03-01T00:40:27;12.10;;;8.37;;
10100;SDS011;5090;51.258;4.436;2023-03-01T00:42:55;12.07;;;8.23;;
10100;SDS011;5090;51.258;4.436;2023-03-01T00:45:23;14.47;;;9.13;;
10100;SDS011;5090;51.258;4.436;2023-03-01T00:47:51;13.17;;;8.30;;
10100;SDS011;5090;51.258;4.436;2023-03-01T00:50:19;14.97;;;8.33;;
10100;SDS011;5090;51.258;4.436;2023-03-01T00:52:50;13.37;;;8.03;;
10100;SDS011;5090;51.258;4.436;2023-03-01T00:55:15;9.90;;;7.73;;
10100;SDS011;5090;51.258;4.436;2023-03-01T00:57:44;11.17;;;8.10;;
10100;SDS011;5090;51.258;4.436;2023-03-01T01:00:12;11.83;;;7.83;;
10100;SDS011;5090;51.258;4.436;2023-03-01T01:02:40;10.90;;;7.63;;
10100;SDS011;5090;51.258;4.436;2023-03-01T01:05:08;12.07;;;8.20;;
10100;SDS011;5090;51.258;4.436;2023-03-01T01:07:37;16.40;;;8.87;;
10100;SDS011;5090;51.258;4.436;2023-03-01T01:10:05;12.23;;;7.90;;
10100;SDS011;5090;51.258;4.436;2023-03-01T01:12:34;11.60;;;7.93;;
10100;SDS011;5090;51.258;4.436;2023-03-01T01:15:02;10.07;;;7.97;;
10100;SDS011;5090;51.258;4.436;2023-03-01T01:17:30;13.40;;;7.70;;
10100;SDS011;5090;51.258;4.436;2023-03-01T01:19:58;9.43;;;7.90;;
10100;SDS011;5090;51.258;4.436;2023-03-01T01:22:26;10.93;;;7.50;;
10100;SDS011;5090;51.258;4.436;2023-03-01T01:24:55;13.33;;;8.67;;
10100;SDS011;5090;51.258;4.436;2023-03-01T01:27:23;10.57;;;7.43;;
10100;SDS011;5090;51.258;4.436;2023-03-01T01:29:52;14.77;;;8.13;;
10100;SDS011;5090;51.258;4.436;2023-03-01T01:32:19;11.97;;;8.07;;
10100;SDS011;5090;51.258;4.436;2023-03-01T01:34:48;11.67;;;8.23;;
10100;SDS011;5090;51.258;4.436;2023-03-01T01:37:16;9.80;;;7.90;;
10100;SDS011;5090;51.258;4.436;2023-03-01T01:39:44;12.40;;;8.57;;
10100;SDS011;5090;51.258;4.436;2023-03-01T01:42:15;13.40;;;7.63;;
10100;SDS011;5090;51.258;4.436;2023-03-01T01:44:42;11.33;;;9.10;;
10100;SDS011;5090;51.258;4.436;2023-03-01T01:47:14;11.07;;;8.00;;
10100;SDS011;5090;51.258;4.436;2023-03-01T01:49:47;9.70;;;7.80;;
10100;SDS011;5090;51.258;4.436;2023-03-01T01:52:20;12.73;;;8.67;;
10100;SDS011;5090;51.258;4.436;2023-03-01T01:54:51;10.17;;;7.87;;
10100;SDS011;5090;51.258;4.436;2023-03-01T01:57:19;12.93;;;8.40;;
10100;SDS011;5090;51.258;4.436;2023-03-01T01:59:48;9.83;;;7.70;;
10100;SDS011;5090;51.258;4.436;2023-03-01T02:02:14;10.93;;;7.67;;
10100;SDS011;5090;51.258;4.436;2023-03-01T02:04:43;10.93;;;7.87;;
10100;SDS011;5090;51.258;4.436;2023-03-01T02:07:14;15.10;;;8.03;;
10100;SDS011;5090;51.258;4.436;2023-03-01T02:09:43;11.13;;;7.90;;
10100;SDS011;5090;51.258;4.436;2023-03-01T02:12:10;12.10;;;8.30;;
10100;SDS011;5090;51.258;4.436;2023-03-01T02:14:39;12.07;;;8.67;;
10100;SDS011;5090;51.258;4.436;2023-03-01T02:17:08;13.17;;;8.70;;
10100;SDS011;5090;51.258;4.436;2023-03-01T02:19:42;11.23;;;8.07;;
10100;SDS011;5090;51.258;4.436;2023-03-01T02:22:12;12.57;;;8.83;;
10100;SDS011;5090;51.258;4.436;2023-03-01T02:24:40;11.17;;;8.37;;
10100;SDS011;5090;51.258;4.436;2023-03-01T02:27:06;11.70;;;8.43;;
10100;SDS011;5090;51.258;4.436;2023-03-01T02:29:34;11.37;;;8.20;;
10100;SDS011;5090;51.258;4.436;2023-03-01T02:32:03;10.13;;;7.77;;
10100;SDS011;5090;51.258;4.436;2023-03-01T02:34:31;11.07;;;7.77;;
10100;SDS011;5090;51.258;4.436;2023-03-01T02:37:01;11.10;;;8.03;;
10100;SDS011;5090;51.258;4.436;2023-03-01T02:39:30;11.27;;;8.07;;
10100;SDS011;5090;51.258;4.436;2023-03-01T02:41:57;12.43;;;8.80;;
10100;SDS011;5090;51.258;4.436;2023-03-01T02:44:25;10.73;;;8.37;;
10100;SDS011;5090;51.258;4.436;2023-03-01T02:46:54;10.40;;;7.90;;
10100;SDS011;5090;51.258;4.436;2023-03-01T02:49:25;11.27;;;8.97;;
10100;SDS011;5090;51.258;4.436;2023-03-01T02:51:56;15.53;;;8.73;;
10100;SDS011;5090;51.258;4.436;2023-03-01T02:54:27;11.27;;;8.73;;
10100;SDS011;5090;51.258;4.436;2023-03-01T02:56:53;12.47;;;8.73;;
10100;SDS011;5090;51.258;4.436;2023-03-01T02:59:22;13.10;;;8.63;;
10100;SDS011;5090;51.258;4.436;2023-03-01T03:01:49;11.70;;;8.70;;
10100;SDS011;5090;51.258;4.436;2023-03-01T03:04:18;14.00;;;8.87;;
10100;SDS011;5090;51.258;4.436;2023-03-01T03:06:47;12.87;;;9.10;;
10100;SDS011;5090;51.258;4.436;2023-03-01T03:09:14;13.20;;;8.60;;
10100;SDS011;5090;51.258;4.436;2023-03-01T03:11:43;12.73;;;8.70;;
10100;SDS011;5090;51.258;4.436;2023-03-01T03:14:12;12.53;;;9.23;;
10100;SDS011;5090;51.258;4.436;2023-03-01T03:16:43;11.27;;;9.13;;
10100;SDS011;5090;51.258;4.436;2023-03-01T03:19:11;14.63;;;8.20;;
10100;SDS011;5090;51.258;4.436;2023-03-01T03:21:40;11.83;;;8.63;;
10100;SDS011;5090;51.258;4.436;2023-03-01T03:24:08;12.63;;;8.33;;
10100;SDS011;5090;51.258;4.436;2023-03-01T03:26:36;12.37;;;8.23;;
10100;SDS011;5090;51.258;4.436;2023-03-01T03:29:04;14.67;;;8.57;;
10100;SDS011;5090;51.258;4.436;2023-03-01T03:31:32;14.67;;;8.80;;
10100;SDS011;5090;51.258;4.436;2023-03-01T03:34:00;11.80;;;8.87;;
10100;SDS011;5090;51.258;4.436;2023-03-01T03:36:29;12.00;;;8.13;;
10100;SDS011;5090;51.258;4.436;2023-03-01T03:38:57;14.90;;;9.20;;
10100;SDS011;5090;51.258;4.436;2023-03-01T03:41:25;12.83;;;8.43;;
10100;SDS011;5090;51.258;4.436;2023-03-01T03:43:53;10.47;;;8.33;;
10100;SDS011;5090;51.258;4.436;2023-03-01T03:46:21;13.97;;;8.80;;
10100;SDS011;5090;51.258;4.436;2023-03-01T03:48:50;12.50;;;8.93;;
10100;SDS011;5090;51.258;4.436;2023-03-01T03:51:18;10.93;;;8.93;;
10100;SDS011;5090;51.258;4.436;2023-03-01T03:53:47;12.53;;;9.50;;
10100;SDS011;5090;51.258;4.436;2023-03-01T03:56:15;11.43;;;8.80;;
10100;SDS011;5090;51.258;4.436;2023-03-01T03:58:43;17.37;;;9.43;;
10100;SDS011;5090;51.258;4.436;2023-03-01T04:01:11;12.63;;;9.47;;
10100;SDS011;5090;51.258;4.436;2023-03-01T04:03:39;13.67;;;9.77;;
10100;SDS011;5090;51.258;4.436;2023-03-01T04:06:08;11.10;;;8.87;;
10100;SDS011;5090;51.258;4.436;2023-03-01T04:08:36;12.70;;;8.77;;
10100;SDS011;5090;51.258;4.436;2023-03-01T04:11:04;14.27;;;9.80;;
10100;SDS011;5090;51.258;4.436;2023-03-01T04:13:38;12.60;;;8.43;;
10100;SDS011;5090;51.258;4.436;2023-03-01T04:16:06;13.17;;;9.27;;
10100;SDS011;5090;51.258;4.436;2023-03-01T04:18:34;13.53;;;9.70;;
10100;SDS011;5090;51.258;4.436;2023-03-01T04:21:02;13.40;;;9.40;;
10100;SDS011;5090;51.258;4.436;2023-03-01T04:23:31;15.17;;;9.70;;
10100;SDS011;5090;51.258;4.436;2023-03-01T04:25:59;13.57;;;9.40;;
10100;SDS011;5090;51.258;4.436;2023-03-01T04:28:30;13.00;;;9.70;;
10100;SDS011;5090;51.258;4.436;2023-03-01T04:30:57;15.33;;;9.50;;
10100;SDS011;5090;51.258;4.436;2023-03-01T04:33:25;12.97;;;9.33;;
10100;SDS011;5090;51.258;4.436;2023-03-01T04:35:53;13.73;;;9.47;;
10100;SDS011;5090;51.258;4.436;2023-03-01T04:38:22;13.90;;;10.20;;
10100;SDS011;5090;51.258;4.436;2023-03-01T04:40:50;16.43;;;9.60;;
10100;SDS011;5090;51.258;4.436;2023-03-01T04:43:18;13.87;;;9.57;;
10100;SDS011;5090;51.258;4.436;2023-03-01T04:45:46;13.43;;;9.40;;
10100;SDS011;5090;51.258;4.436;2023-03-01T04:48:15;15.37;;;9.77;;
10100;SDS011;5090;51.258;4.436;2023-03-01T04:50:43;13.73;;;9.70;;
10100;SDS011;5090;51.258;4.436;2023-03-01T04:53:11;14.57;;;9.47;;
10100;SDS011;5090;51.258;4.436;2023-03-01T04:55:39;13.50;;;9.70;;
10100;SDS011;5090;51.258;4.436;2023-03-01T04:58:09;13.83;;;10.03;;
10100;SDS011;5090;51.258;4.436;2023-03-01T05:00:38;11.83;;;9.33;;
10100;SDS011;5090;51.258;4.436;2023-03-01T05:03:07;13.53;;;9.33;;
10100;SDS011;5090;51.258;4.436;2023-03-01T05:05:38;13.73;;;9.50;;
10100;SDS011;5090;51.258;4.436;2023-03-01T05:08:04;12.30;;;9.17;;
10100;SDS011;5090;51.258;4.436;2023-03-01T05:10:32;15.80;;;9.90;;
10100;SDS011;5090;51.258;4.436;2023-03-01T05:13:00;16.67;;;9.43;;
10100;SDS011;5090;51.258;4.436;2023-03-01T05:15:29;14.53;;;9.17;;
10100;SDS011;5090;51.258;4.436;2023-03-01T05:17:57;16.70;;;9.23;;
10100;SDS011;5090;51.258;4.436;2023-03-01T05:20:26;13.70;;;8.90;;
10100;SDS011;5090;51.258;4.436;2023-03-01T05:22:56;15.20;;;9.27;;
10100;SDS011;5090;51.258;4.436;2023-03-01T05:25:23;12.50;;;9.37;;
10100;SDS011;5090;51.258;4.436;2023-03-01T05:27:51;15.73;;;10.37;;
10100;SDS011;5090;51.258;4.436;2023-03-01T05:30:19;14.73;;;9.37;;
10100;SDS011;5090;51.258;4.436;2023-03-01T05:32:49;14.40;;;9.63;;
10100;SDS011;5090;51.258;4.436;2023-03-01T05:35:16;13.43;;;9.73;;
10100;SDS011;5090;51.258;4.436;2023-03-01T05:37:46;14.73;;;10.50;;
10100;SDS011;5090;51.258;4.436;2023-03-01T05:40:15;14.10;;;9.63;;
10100;SDS011;5090;51.258;4.436;2023-03-01T05:42:46;16.40;;;9.20;;
10100;SDS011;5090;51.258;4.436;2023-03-01T05:45:14;11.83;;;9.30;;
10100;SDS011;5090;51.258;4.436;2023-03-01T05:47:42;16.73;;;8.83;;
10100;SDS011;5090;51.258;4.436;2023-03-01T05:50:13;11.77;;;9.27;;
10100;SDS011;5090;51.258;4.436;2023-03-01T05:52:40;11.83;;;9.33;;
10100;SDS011;5090;51.258;4.436;2023-03-01T05:55:08;17.00;;;9.47;;
10100;SDS011;5090;51.258;4.436;2023-03-01T05:57:37;13.97;;;9.47;;
10100;SDS011;5090;51.258;4.436;2023-03-01T06:00:05;19.03;;;9.83;;
10100;SDS011;5090;51.258;4.436;2023-03-01T06:02:34;16.13;;;9.83;;
10100;SDS011;5090;51.258;4.436;2023-03-01T06:05:02;15.30;;;9.87;;
10100;SDS011;5090;51.258;4.436;2023-03-01T06:07:31;14.17;;;9.70;;
10100;SDS011;5090;51.258;4.436;2023-03-01T06:09:59;13.10;;;9.13;;
10100;SDS011;5090;51.258;4.436;2023-03-01T06:12:29;12.03;;;9.57;;
10100;SDS011;5090;51.258;4.436;2023-03-01T06:14:55;17.87;;;9.37;;
10100;SDS011;5090;51.258;4.436;2023-03-01T06:17:24;15.83;;;9.73;;
10100;SDS011;5090;51.258;4.436;2023-03-01T06:19:52;14.60;;;9.57;;
10100;SDS011;5090;51.258;4.436;2023-03-01T06:22:20;14.07;;;9.80;;
10100;SDS011;5090;51.258;4.436;2023-03-01T06:24:49;13.80;;;9.43;;
10100;SDS011;5090;51.258;4.436;2023-03-01T06:27:17;15.13;;;9.50;;
10100;SDS011;5090;51.258;4.436;2023-03-01T06:29:46;14.97;;;9.20;;
10100;SDS011;5090;51.258;4.436;2023-03-01T06:32:14;12.80;;;9.10;;
10100;SDS011;5090;51.258;4.436;2023-03-01T06:34:43;12.80;;;9.57;;
10100;SDS011;5090;51.258;4.436;2023-03-01T06:37:11;15.27;;;10.33;;
10100;SDS011;5090;51.258;4.436;2023-03-01T06:39:39;12.93;;;8.73;;
10100;SDS011;5090;51.258;4.436;2023-03-01T06:42:07;15.50;;;9.90;;
10100;SDS011;5090;51.258;4.436;2023-03-01T06:44:36;16.03;;;9.37;;
10100;SDS011;5090;51.258;4.436;2023-03-01T06:47:04;14.43;;;9.80;;
10100;SDS011;5090;51.258;4.436;2023-03-01T06:49:32;19.53;;;10.10;;
10100;SDS011;5090;51.258;4.436;2023-03-01T06:52:00;13.57;;;9.30;;
10100;SDS011;5090;51.258;4.436;2023-03-01T06:54:28;13.50;;;9.33;;
10100;SDS011;5090;51.258;4.436;2023-03-01T06:56:56;13.50;;;10.10;;
10100;SDS011;5090;51.258;4.436;2023-03-01T06:59:25;14.97;;;9.77;;
10100;SDS011;5090;51.258;4.436;2023-03-01T07:01:53;15.83;;;10.23;;
10100;SDS011;5090;51.258;4.436;2023-03-01T07:04:21;13.53;;;10.23;;
10100;SDS011;5090;51.258;4.436;2023-03-01T07:06:49;16.50;;;9.67;;
10100;SDS011;5090;51.258;4.436;2023-03-01T07:09:17;16.17;;;8.63;;
10100;SDS011;5090;51.258;4.436;2023-03-01T07:11:46;15.63;;;9.33;;
10100;SDS011;5090;51.258;4.436;2023-03-01T07:14:14;13.60;;;8.80;;
10100;SDS011;5090;51.258;4.436;2023-03-01T07:16:42;12.67;;;9.37;;
10100;SDS011;5090;51.258;4.436;2023-03-01T07:19:10;12.90;;;8.90;;
10100;SDS011;5090;51.258;4.436;2023-03-01T07:21:38;15.80;;;9.67;;
10100;SDS011;5090;51.258;4.436;2023-03-01T07:24:07;11.50;;;8.10;;
10100;SDS011;5090;51.258;4.436;2023-03-01T07:26:35;17.37;;;8.87;;
10100;SDS011;5090;51.258;4.436;2023-03-01T07:29:04;16.67;;;9.33;;
10100;SDS011;5090;51.258;4.436;2023-03-01T07:31:32;12.03;;;8.87;;
10100;SDS011;5090;51.258;4.436;2023-03-01T07:34:00;12.63;;;8.73;;
10100;SDS011;5090;51.258;4.436;2023-03-01T07:36:28;13.03;;;8.80;;
10100;SDS011;5090;51.258;4.436;2023-03-01T07:38:56;14.97;;;8.47;;
10100;SDS011;5090;51.258;4.436;2023-03-01T07:41:25;16.17;;;8.73;;
10100;SDS011;5090;51.258;4.436;2023-03-01T07:43:53;9.43;;;7.80;;
10100;SDS011;5090;51.258;4.436;2023-03-01T07:46:21;10.27;;;7.83;;
10100;SDS011;5090;51.258;4.436;2023-03-01T07:48:49;12.83;;;8.57;;
10100;SDS011;5090;51.258;4.436;2023-03-01T07:51:18;9.93;;;7.30;;
10100;SDS011;5090;51.258;4.436;2023-03-01T07:53:46;12.83;;;8.17;;
10100;SDS011;5090;51.258;4.436;2023-03-01T07:56:15;8.97;;;7.10;;
10100;SDS011;5090;51.258;4.436;2023-03-01T07:58:43;11.83;;;7.60;;
10100;SDS011;5090;51.258;4.436;2023-03-01T08:01:13;13.83;;;7.13;;
10100;SDS011;5090;51.258;4.436;2023-03-01T08:03:40;11.40;;;7.30;;
10100;SDS011;5090;51.258;4.436;2023-03-01T08:06:11;12.37;;;7.10;;
10100;SDS011;5090;51.258;4.436;2023-03-01T08:08:37;9.40;;;6.90;;
10100;SDS011;5090;51.258;4.436;2023-03-01T08:11:06;9.13;;;6.53;;
10100;SDS011;5090;51.258;4.436;2023-03-01T08:13:33;9.73;;;7.47;;
10100;SDS011;5090;51.258;4.436;2023-03-01T08:16:05;10.73;;;7.17;;
10100;SDS011;5090;51.258;4.436;2023-03-01T08:18:33;11.27;;;6.50;;
10100;SDS011;5090;51.258;4.436;2023-03-01T08:21:10;8.10;;;6.57;;
10100;SDS011;5090;51.258;4.436;2023-03-01T08:23:36;11.20;;;6.10;;
10100;SDS011;5090;51.258;4.436;2023-03-01T08:26:06;7.93;;;6.50;;
10100;SDS011;5090;51.258;4.436;2023-03-01T08:28:33;11.43;;;6.63;;
10100;SDS011;5090;51.258;4.436;2023-03-01T08:31:01;10.10;;;6.40;;
10100;SDS011;5090;51.258;4.436;2023-03-01T08:33:29;10.07;;;6.40;;
10100;SDS011;5090;51.258;4.436;2023-03-01T08:36:03;11.63;;;6.47;;
10100;SDS011;5090;51.258;4.436;2023-03-01T08:38:30;10.93;;;6.57;;
10100;SDS011;5090;51.258;4.436;2023-03-01T08:40:59;10.77;;;6.77;;
10100;SDS011;5090;51.258;4.436;2023-03-01T08:43:27;8.67;;;6.43;;
10100;SDS011;5090;51.258;4.436;2023-03-01T08:45:55;10.07;;;6.93;;
10100;SDS011;5090;51.258;4.436;2023-03-01T08:48:23;9.87;;;6.57;;
10100;SDS011;5090;51.258;4.436;2023-03-01T08:50:51;8.30;;;6.60;;
10100;SDS011;5090;51.258;4.436;2023-03-01T08:53:20;8.60;;;6.87;;
10100;SDS011;5090;51.258;4.436;2023-03-01T08:55:48;11.10;;;7.30;;
10100;SDS011;5090;51.258;4.436;2023-03-01T08:58:16;9.83;;;6.53;;
10100;SDS011;5090;51.258;4.436;2023-03-01T09:00:44;9.37;;;7.07;;
10100;SDS011;5090;51.258;4.436;2023-03-01T09:03:12;9.43;;;6.63;;
10100;SDS011;5090;51.258;4.436;2023-03-01T09:05:41;10.10;;;6.83;;
10100;SDS011;5090;51.258;4.436;2023-03-01T09:08:09;10.07;;;6.73;;
10100;SDS011;5090;51.258;4.436;2023-03-01T09:10:38;8.83;;;6.90;;
10100;SDS011;5090;51.258;4.436;2023-03-01T09:13:05;8.33;;;6.57;;
10100;SDS011;5090;51.258;4.436;2023-03-01T09:15:33;8.73;;;6.70;;
10100;SDS011;5090;51.258;4.436;2023-03-01T09:18:02;9.03;;;6.60;;
10100;SDS011;5090;51.258;4.436;2023-03-01T09:20:31;12.17;;;6.80;;
10100;SDS011;5090;51.258;4.436;2023-03-01T09:22:59;11.00;;;6.90;;
10100;SDS011;5090;51.258;4.436;2023-03-01T09:25:27;9.53;;;6.67;;
10100;SDS011;5090;51.258;4.436;2023-03-01T09:27:55;10.23;;;7.13;;
10100;SDS011;5090;51.258;4.436;2023-03-01T09:30:23;7.67;;;6.37;;
10100;SDS011;5090;51.258;4.436;2023-03-01T09:32:51;8.03;;;6.60;;
10100;SDS011;5090;51.258;4.436;2023-03-01T09:35:20;10.47;;;6.40;;
10100;SDS011;5090;51.258;4.436;2023-03-01T09:37:48;9.33;;;6.27;;
10100;SDS011;5090;51.258;4.436;2023-03-01T09:40:18;9.70;;;6.90;;
10100;SDS011;5090;51.258;4.436;2023-03-01T09:42:46;8.70;;;6.47;;
10100;SDS011;5090;51.258;4.436;2023-03-01T09:45:23;9.27;;;6.63;;
10100;SDS011;5090;51.258;4.436;2023-03-01T09:47:51;10.50;;;7.30;;
10100;SDS011;5090;51.258;4.436;2023-03-01T09:50:20;8.57;;;6.43;;
10100;SDS011;5090;51.258;4.436;2023-03-01T09:52:52;9.80;;;6.70;;
10100;SDS011;5090;51.258;4.436;2023-03-01T09:55:20;10.63;;;7.33;;
10100;SDS011;5090;51.258;4.436;2023-03-01T09:57:50;10.23;;;6.43;;
10100;SDS011;5090;51.258;4.436;2023-03-01T10:00:22;10.93;;;7.83;;
10100;SDS011;5090;51.258;4.436;2023-03-01T10:02:49;9.07;;;6.93;;
10100;SDS011;5090;51.258;4.436;2023-03-01T10:08:34;9.17;;;6.83;;
10100;SDS011;5090;51.258;4.436;2023-03-01T10:10:44;10.40;;;7.20;;
10100;SDS011;5090;51.258;4.436;2023-03-01T10:13:16;10.23;;;7.03;;
10100;SDS011;5090;51.258;4.436;2023-03-01T10:15:44;10.90;;;6.67;;
10100;SDS011;5090;51.258;4.436;2023-03-01T10:18:12;7.23;;;6.30;;
10100;SDS011;5090;51.258;4.436;2023-03-01T10:20:45;10.07;;;6.70;;
10100;SDS011;5090;51.258;4.436;2023-03-01T10:23:11;9.77;;;6.73;;
10100;SDS011;5090;51.258;4.436;2023-03-01T10:25:45;7.40;;;6.20;;
10100;SDS011;5090;51.258;4.436;2023-03-01T10:28:16;8.03;;;5.93;;
10100;SDS011;5090;51.258;4.436;2023-03-01T10:30:43;10.40;;;6.87;;
10100;SDS011;5090;51.258;4.436;2023-03-01T10:33:13;10.83;;;6.73;;
10100;SDS011;5090;51.258;4.436;2023-03-01T10:35:39;8.97;;;6.63;;
10100;SDS011;5090;51.258;4.436;2023-03-01T10:38:08;8.20;;;6.43;;
10100;SDS011;5090;51.258;4.436;2023-03-01T10:40:36;13.90;;;6.57;;
10100;SDS011;5090;51.258;4.436;2023-03-01T10:43:04;9.67;;;6.10;;
10100;SDS011;5090;51.258;4.436;2023-03-01T10:45:34;7.37;;;5.50;;
10100;SDS011;5090;51.258;4.436;2023-03-01T10:48:08;7.13;;;5.93;;
10100;SDS011;5090;51.258;4.436;2023-03-01T10:50:33;8.50;;;6.03;;
10100;SDS011;5090;51.258;4.436;2023-03-01T10:53:02;8.63;;;5.43;;
10100;SDS011;5090;51.258;4.436;2023-03-01T10:55:33;6.87;;;5.83;;
10100;SDS011;5090;51.258;4.436;2023-03-01T10:58:07;8.77;;;5.80;;
10100;SDS011;5090;51.258;4.436;2023-03-01T11:00:45;6.73;;;5.43;;
10100;SDS011;5090;51.258;4.436;2023-03-01T11:03:10;7.77;;;6.33;;
10100;SDS011;5090;51.258;4.436;2023-03-01T11:05:32;7.17;;;5.60;;
10100;SDS011;5090;51.258;4.436;2023-03-01T11:08:00;6.13;;;5.53;;
10100;SDS011;5090;51.258;4.436;2023-03-01T11:10:30;9.33;;;6.50;;
10100;SDS011;5090;51.258;4.436;2023-03-01T11:15:31;9.00;;;6.17;;
10100;SDS011;5090;51.258;4.436;2023-03-01T11:17:59;7.17;;;5.60;;
10100;SDS011;5090;51.258;4.436;2023-03-01T11:20:32;7.97;;;6.17;;
10100;SDS011;5090;51.258;4.436;2023-03-01T11:23:01;11.60;;;6.10;;
10100;SDS011;5090;51.258;4.436;2023-03-01T11:25:31;6.60;;;5.30;;
10100;SDS011;5090;51.258;4.436;2023-03-01T11:27:57;7.33;;;6.00;;
10100;SDS011;5090;51.258;4.436;2023-03-01T11:30:27;7.93;;;5.93;;
10100;SDS011;5090;51.258;4.436;2023-03-01T11:35:28;8.90;;;5.87;;
10100;SDS011;5090;51.258;4.436;2023-03-01T11:38:09;6.83;;;5.33;;
10100;SDS011;5090;51.258;4.436;2023-03-01T11:40:35;9.83;;;6.13;;
10100;SDS011;5090;51.258;4.436;2023-03-01T11:43:11;9.57;;;5.97;;
10100;SDS011;5090;51.258;4.436;2023-03-01T11:45:47;7.00;;;5.90;;
10100;SDS011;5090;51.258;4.436;2023-03-01T11:50:46;7.63;;;6.07;;
10100;SDS011;5090;51.258;4.436;2023-03-01T11:55:53;8.00;;;5.37;;
10100;SDS011;5090;51.258;4.436;2023-03-01T12:03:47;9.10;;;6.53;;
10100;SDS011;5090;51.258;4.436;2023-03-01T12:09:38;9.77;;;6.50;;
10100;SDS011;5090;51.258;4.436;2023-03-01T12:11:53;7.90;;;5.63;;
10100;SDS011;5090;51.258;4.436;2023-03-01T12:14:26;7.13;;;5.50;;
10100;SDS011;5090;51.258;4.436;2023-03-01T12:16:56;8.07;;;6.00;;
10100;SDS011;5090;51.258;4.436;2023-03-01T12:20:29;13.17;;;6.53;;
10100;SDS011;5090;51.258;4.436;2023-03-01T12:22:40;8.03;;;6.10;;
10100;SDS011;5090;51.258;4.436;2023-03-01T12:27:32;9.97;;;5.60;;
10100;SDS011;5090;51.258;4.436;2023-03-01T12:30:34;9.40;;;6.33;;
10100;SDS011;5090;51.258;4.436;2023-03-01T12:32:47;8.90;;;5.83;;
10100;SDS011;5090;51.258;4.436;2023-03-01T12:37:58;7.17;;;5.33;;
10100;SDS011;5090;51.258;4.436;2023-03-01T12:40:28;9.40;;;6.43;;
10100;SDS011;5090;51.258;4.436;2023-03-01T12:45:41;6.10;;;5.03;;
10100;SDS011;5090;51.258;4.436;2023-03-01T12:48:14;8.60;;;6.03;;
10100;SDS011;5090;51.258;4.436;2023-03-01T12:50:40;7.73;;;5.90;;
10100;SDS011;5090;51.258;4.436;2023-03-01T12:53:11;8.80;;;5.80;;
10100;SDS011;5090;51.258;4.436;2023-03-01T12:55:37;8.47;;;6.00;;
10100;SDS011;5090;51.258;4.436;2023-03-01T12:58:07;10.83;;;6.20;;
10100;SDS011;5090;51.258;4.436;2023-03-01T13:00:36;7.53;;;5.90;;
10100;SDS011;5090;51.258;4.436;2023-03-01T13:03:19;6.80;;;5.57;;
10100;SDS011;5090;51.258;4.436;2023-03-01T13:06:01;9.10;;;6.03;;
10100;SDS011;5090;51.258;4.436;2023-03-01T13:08:29;6.40;;;5.57;;
10100;SDS011;5090;51.258;4.436;2023-03-01T13:10:56;10.57;;;5.90;;
10100;SDS011;5090;51.258;4.436;2023-03-01T13:13:25;7.83;;;5.67;;
10100;SDS011;5090;51.258;4.436;2023-03-01T13:15:52;10.07;;;6.30;;
10100;SDS011;5090;51.258;4.436;2023-03-01T13:18:28;8.83;;;5.50;;
10100;SDS011;5090;51.258;4.436;2023-03-01T13:20:57;8.10;;;6.03;;
10100;SDS011;5090;51.258;4.436;2023-03-01T13:23:26;7.80;;;5.90;;
10100;SDS011;5090;51.258;4.436;2023-03-01T13:25:59;7.87;;;6.10;;
10100;SDS011;5090;51.258;4.436;2023-03-01T13:28:47;10.50;;;6.33;;
10100;SDS011;5090;51.258;4.436;2023-03-01T13:33:58;8.43;;;6.13;;
10100;SDS011;5090;51.258;4.436;2023-03-01T13:41:48;8.60;;;5.73;;
10100;SDS011;5090;51.258;4.436;2023-03-01T13:44:24;9.03;;;6.00;;
10100;SDS011;5090;51.258;4.436;2023-03-01T13:46:49;9.57;;;6.10;;
10100;SDS011;5090;51.258;4.436;2023-03-01T13:49:18;7.37;;;6.13;;
10100;SDS011;5090;51.258;4.436;2023-03-01T13:51:47;8.90;;;6.00;;
10100;SDS011;5090;51.258;4.436;2023-03-01T13:54:15;7.83;;;6.07;;
10100;SDS011;5090;51.258;4.436;2023-03-01T13:56:42;8.23;;;5.80;;
10100;SDS011;5090;51.258;4.436;2023-03-01T13:59:14;8.67;;;6.07;;
10100;SDS011;5090;51.258;4.436;2023-03-01T14:01:41;8.83;;;5.20;;
10100;SDS011;5090;51.258;4.436;2023-03-01T14:06:43;8.00;;;5.87;;
10100;SDS011;5090;51.258;4.436;2023-03-01T14:09:15;8.83;;;6.43;;
10100;SDS011;5090;51.258;4.436;2023-03-01T14:14:34;8.20;;;5.93;;
10100;SDS011;5090;51.258;4.436;2023-03-01T14:17:13;7.57;;;5.63;;
10100;SDS011;5090;51.258;4.436;2023-03-01T14:19:40;6.93;;;6.23;;
10100;SDS011;5090;51.258;4.436;2023-03-01T14:22:13;6.70;;;5.80;;
10100;SDS011;5090;51.258;4.436;2023-03-01T14:24:40;6.40;;;5.20;;
10100;SDS011;5090;51.258;4.436;2023-03-01T14:27:10;6.50;;;5.73;;
10100;SDS011;5090;51.258;4.436;2023-03-01T14:29:37;10.27;;;7.70;;
10100;SDS011;5090;51.258;4.436;2023-03-01T14:32:09;8.83;;;5.90;;
10100;SDS011;5090;51.258;4.436;2023-03-01T14:34:38;7.03;;;5.30;;
10100;SDS011;5090;51.258;4.436;2023-03-01T14:37:15;10.07;;;6.13;;
10100;SDS011;5090;51.258;4.436;2023-03-01T14:39:39;13.57;;;5.90;;
10100;SDS011;5090;51.258;4.436;2023-03-01T14:42:07;7.47;;;5.60;;
10100;SDS011;5090;51.258;4.436;2023-03-01T14:44:35;8.37;;;5.67;;
10100;SDS011;5090;51.258;4.436;2023-03-01T14:47:03;8.63;;;5.77;;
10100;SDS011;5090;51.258;4.436;2023-03-01T14:49:32;8.67;;;6.07;;
10100;SDS011;5090;51.258;4.436;2023-03-01T14:52:05;8.07;;;5.57;;
10100;SDS011;5090;51.258;4.436;2023-03-01T14:54:39;9.50;;;6.20;;
10100;SDS011;5090;51.258;4.436;2023-03-01T14:57:05;8.47;;;5.53;;
10100;SDS011;5090;51.258;4.436;2023-03-01T14:59:34;10.43;;;6.27;;
10100;SDS011;5090;51.258;4.436;2023-03-01T15:02:03;7.90;;;5.77;;
10100;SDS011;5090;51.258;4.436;2023-03-01T15:04:31;9.33;;;5.73;;
10100;SDS011;5090;51.258;4.436;2023-03-01T15:07:00;7.73;;;6.13;;
10100;SDS011;5090;51.258;4.436;2023-03-01T15:09:28;11.27;;;5.93;;
10100;SDS011;5090;51.258;4.436;2023-03-01T15:11:56;8.53;;;6.00;;
10100;SDS011;5090;51.258;4.436;2023-03-01T15:14:25;9.63;;;6.50;;
10100;SDS011;5090;51.258;4.436;2023-03-01T15:16:52;7.17;;;5.77;;
10100;SDS011;5090;51.258;4.436;2023-03-01T15:19:21;7.90;;;6.30;;
10100;SDS011;5090;51.258;4.436;2023-03-01T15:21:49;7.87;;;6.23;;
10100;SDS011;5090;51.258;4.436;2023-03-01T15:24:20;8.07;;;6.23;;
10100;SDS011;5090;51.258;4.436;2023-03-01T15:26:52;10.43;;;5.63;;
10100;SDS011;5090;51.258;4.436;2023-03-01T15:29:20;12.10;;;6.20;;
10100;SDS011;5090;51.258;4.436;2023-03-01T15:34:26;10.00;;;5.80;;
10100;SDS011;5090;51.258;4.436;2023-03-01T15:36:53;7.87;;;6.17;;
10100;SDS011;5090;51.258;4.436;2023-03-01T15:39:29;7.90;;;5.87;;
10100;SDS011;5090;51.258;4.436;2023-03-01T15:41:54;8.17;;;6.27;;
10100;SDS011;5090;51.258;4.436;2023-03-01T15:44:27;9.80;;;6.37;;
10100;SDS011;5090;51.258;4.436;2023-03-01T15:46:55;9.60;;;5.80;;
10100;SDS011;5090;51.258;4.436;2023-03-01T15:49:39;10.40;;;7.03;;